sensor_id;sensor_type;location;lat;lon;timestamp;P1;durP1;ratioP1;P2;durP2;ratioP2
19919;SDS011;10122;50.074;19.920;2023-04-15T00:01:20;1.40;;;1.30;;
19919;SDS011;10122;50.074;19.920;2023-04-15T00:03:46;1.88;;;1.25;;
19919;SDS011;10122;50.074;19.920;2023-04-15T00:06:14;1.35;;;1.25;;
19919;SDS011;10122;50.074;19.920;2023-04-15T00:08:40;1.40;;;1.10;;
19919;SDS011;10122;50.074;19.920;2023-04-15T00:11:06;2.50;;;1.20;;
19919;SDS011;10122;50.074;19.920;2023-04-15T00:13:32;1.60;;;1.40;;
19919;SDS011;10122;50.074;19.920;2023-04-15T00:15:58;1.35;;;1.23;;
19919;SDS011;10122;50.074;19.920;2023-04-15T00:18:24;2.08;;;1.20;;
19919;SDS011;10122;50.074;19.920;2023-04-15T00:20:50;1.60;;;1.40;;
19919;SDS011;10122;50.074;19.920;2023-04-15T00:23:16;2.17;;;1.50;;
19919;SDS011;10122;50.074;19.920;2023-04-15T00:25:42;3.22;;;1.70;;
19919;SDS011;10122;50.074;19.920;2023-04-15T00:28:08;2.10;;;1.40;;
19919;SDS011;10122;50.074;19.920;2023-04-15T00:30:34;2.15;;;1.52;;
19919;SDS011;10122;50.074;19.920;2023-04-15T00:33:00;1.73;;;1.38;;
19919;SDS011;10122;50.074;19.920;2023-04-15T00:35:28;2.45;;;1.50;;
19919;SDS011;10122;50.074;19.920;2023-04-15T00:37:56;2.75;;;1.58;;
19919;SDS011;10122;50.074;19.920;2023-04-15T00:40:23;2.08;;;1.50;;
19919;SDS011;10122;50.074;19.920;2023-04-15T00:42:49;2.47;;;1.40;;
19919;SDS011;10122;50.074;19.920;2023-04-15T00:45:14;2.00;;;1.40;;
19919;SDS011;10122;50.074;19.920;2023-04-15T00:47:41;2.50;;;1.60;;
19919;SDS011;10122;50.074;19.920;2023-04-15T00:50:08;3.13;;;1.50;;
19919;SDS011;10122;50.074;19.920;2023-04-15T00:52:34;1.48;;;1.20;;
19919;SDS011;10122;50.074;19.920;2023-04-15T00:55:01;2.80;;;1.40;;
19919;SDS011;10122;50.074;19.920;2023-04-15T00:57:28;2.15;;;1.60;;
19919;SDS011;10122;50.074;19.920;2023-04-15T00:59:55;3.15;;;1.52;;
19919;SDS011;10122;50.074;19.920;2023-04-15T01:02:20;2.30;;;1.70;;
19919;SDS011;10122;50.074;19.920;2023-04-15T01:04:47;2.63;;;1.58;;
19919;SDS011;10122;50.074;19.920;2023-04-15T01:07:13;2.65;;;1.50;;
19919;SDS011;10122;50.074;19.920;2023-04-15T01:09:39;1.70;;;1.50;;
19919;SDS011;10122;50.074;19.920;2023-04-15T01:12:05;1.95;;;1.55;;
19919;SDS011;10122;50.074;19.920;2023-04-15T01:14:32;2.00;;;1.65;;
19919;SDS011;10122;50.074;19.920;2023-04-15T01:16:58;1.60;;;1.50;;
19919;SDS011;10122;50.074;19.920;2023-04-15T01:19:24;2.67;;;1.30;;
19919;SDS011;10122;50.074;19.920;2023-04-15T01:21:51;1.92;;;1.30;;
19919;SDS011;10122;50.074;19.920;2023-04-15T01:24:17;2.83;;;1.40;;
19919;SDS011;10122;50.074;19.920;2023-04-15T01:26:43;2.05;;;1.50;;
19919;SDS011;10122;50.074;19.920;2023-04-15T01:29:10;2.13;;;1.50;;
19919;SDS011;10122;50.074;19.920;2023-04-15T01:31:36;2.67;;;1.40;;
19919;SDS011;10122;50.074;19.920;2023-04-15T01:34:02;2.00;;;1.40;;
19919;SDS011;10122;50.074;19.920;2023-04-15T01:36:28;2.05;;;1.48;;
19919;SDS011;10122;50.074;19.920;2023-04-15T01:38:55;1.75;;;1.33;;
19919;SDS011;10122;50.074;19.920;2023-04-15T01:41:27;1.45;;;1.30;;
19919;SDS011;10122;50.074;19.920;2023-04-15T01:43:53;1.88;;;1.40;;
19919;SDS011;10122;50.074;19.920;2023-04-15T01:46:19;2.63;;;1.60;;
19919;SDS011;10122;50.074;19.920;2023-04-15T01:48:45;1.92;;;1.30;;
19919;SDS011;10122;50.074;19.920;2023-04-15T01:51:11;2.17;;;1.30;;
19919;SDS011;10122;50.074;19.920;2023-04-15T01:53:37;2.13;;;1.60;;
19919;SDS011;10122;50.074;19.920;2023-04-15T01:56:03;2.33;;;1.40;;
19919;SDS011;10122;50.074;19.920;2023-04-15T01:58:29;2.33;;;1.50;;
19919;SDS011;10122;50.074;19.920;2023-04-15T02:00:55;2.72;;;1.45;;
19919;SDS011;10122;50.074;19.920;2023-04-15T02:03:21;1.95;;;1.27;;
19919;SDS011;10122;50.074;19.920;2023-04-15T02:05:47;2.17;;;1.38;;
19919;SDS011;10122;50.074;19.920;2023-04-15T02:08:13;2.13;;;1.60;;
19919;SDS011;10122;50.074;19.920;2023-04-15T02:10:38;2.53;;;1.33;;
19919;SDS011;10122;50.074;19.920;2023-04-15T02:13:04;3.80;;;1.40;;
19919;SDS011;10122;50.074;19.920;2023-04-15T02:15:30;1.50;;;1.30;;
19919;SDS011;10122;50.074;19.920;2023-04-15T02:17:57;1.65;;;1.27;;
19919;SDS011;10122;50.074;19.920;2023-04-15T02:20:24;5.40;;;1.60;;
19919;SDS011;10122;50.074;19.920;2023-04-15T02:22:50;3.45;;;1.50;;
19919;SDS011;10122;50.074;19.920;2023-04-15T02:25:16;2.65;;;1.50;;
19919;SDS011;10122;50.074;19.920;2023-04-15T02:27:42;2.10;;;1.42;;
19919;SDS011;10122;50.074;19.920;2023-04-15T02:30:08;2.33;;;1.40;;
19919;SDS011;10122;50.074;19.920;2023-04-15T02:32:34;2.10;;;1.60;;
19919;SDS011;10122;50.074;19.920;2023-04-15T02:35:02;2.88;;;1.70;;
19919;SDS011;10122;50.074;19.920;2023-04-15T02:37:29;2.45;;;1.40;;
19919;SDS011;10122;50.074;19.920;2023-04-15T02:39:56;3.72;;;1.77;;
19919;SDS011;10122;50.074;19.920;2023-04-15T02:42:21;2.22;;;1.38;;
19919;SDS011;10122;50.074;19.920;2023-04-15T02:44:47;2.58;;;1.60;;
19919;SDS011;10122;50.074;19.920;2023-04-15T02:47:13;1.80;;;1.48;;
19919;SDS011;10122;50.074;19.920;2023-04-15T02:49:40;2.45;;;1.60;;
19919;SDS011;10122;50.074;19.920;2023-04-15T02:52:05;2.08;;;1.42;;
19919;SDS011;10122;50.074;19.920;2023-04-15T02:54:31;2.55;;;1.40;;
19919;SDS011;10122;50.074;19.920;2023-04-15T02:56:58;1.95;;;1.40;;
19919;SDS011;10122;50.074;19.920;2023-04-15T02:59:24;3.10;;;1.77;;
19919;SDS011;10122;50.074;19.920;2023-04-15T03:05:06;2.05;;;1.40;;
19919;SDS011;10122;50.074;19.920;2023-04-15T03:07:35;2.13;;;1.52;;
19919;SDS011;10122;50.074;19.920;2023-04-15T03:10:01;2.30;;;1.40;;
19919;SDS011;10122;50.074;19.920;2023-04-15T03:12:27;2.97;;;1.50;;
19919;SDS011;10122;50.074;19.920;2023-04-15T03:14:54;1.65;;;1.50;;
19919;SDS011;10122;50.074;19.920;2023-04-15T03:17:20;3.65;;;1.55;;
19919;SDS011;10122;50.074;19.920;2023-04-15T03:19:46;2.55;;;1.40;;
19919;SDS011;10122;50.074;19.920;2023-04-15T03:22:11;2.97;;;1.52;;
19919;SDS011;10122;50.074;19.920;2023-04-15T03:24:37;3.60;;;1.63;;
19919;SDS011;10122;50.074;19.920;2023-04-15T03:27:03;2.97;;;1.70;;
19919;SDS011;10122;50.074;19.920;2023-04-15T03:29:30;2.47;;;1.50;;
19919;SDS011;10122;50.074;19.920;2023-04-15T03:31:56;2.53;;;1.80;;
19919;SDS011;10122;50.074;19.920;2023-04-15T03:34:21;2.67;;;1.83;;
19919;SDS011;10122;50.074;19.920;2023-04-15T03:36:47;2.17;;;1.73;;
19919;SDS011;10122;50.074;19.920;2023-04-15T03:39:13;2.10;;;1.70;;
19919;SDS011;10122;50.074;19.920;2023-04-15T03:41:39;2.58;;;2.00;;
19919;SDS011;10122;50.074;19.920;2023-04-15T03:44:05;2.22;;;1.80;;
19919;SDS011;10122;50.074;19.920;2023-04-15T03:46:30;3.15;;;1.73;;
19919;SDS011;10122;50.074;19.920;2023-04-15T03:48:56;3.22;;;2.00;;
19919;SDS011;10122;50.074;19.920;2023-04-15T03:51:22;2.88;;;1.90;;
19919;SDS011;10122;50.074;19.920;2023-04-15T03:53:48;3.78;;;1.85;;
19919;SDS011;10122;50.074;19.920;2023-04-15T03:56:13;3.15;;;2.00;;
19919;SDS011;10122;50.074;19.920;2023-04-15T03:58:39;4.32;;;2.25;;
19919;SDS011;10122;50.074;19.920;2023-04-15T04:01:05;4.72;;;2.45;;
19919;SDS011;10122;50.074;19.920;2023-04-15T04:03:31;3.97;;;2.50;;
19919;SDS011;10122;50.074;19.920;2023-04-15T04:05:57;4.55;;;2.80;;
19919;SDS011;10122;50.074;19.920;2023-04-15T04:08:23;4.43;;;2.80;;
19919;SDS011;10122;50.074;19.920;2023-04-15T04:10:48;6.93;;;2.90;;
19919;SDS011;10122;50.074;19.920;2023-04-15T04:13:14;4.47;;;2.90;;
19919;SDS011;10122;50.074;19.920;2023-04-15T04:15:40;6.75;;;2.72;;
19919;SDS011;10122;50.074;19.920;2023-04-15T04:18:06;4.68;;;2.50;;
19919;SDS011;10122;50.074;19.920;2023-04-15T04:20:32;5.20;;;3.20;;
19919;SDS011;10122;50.074;19.920;2023-04-15T04:22:58;6.63;;;2.90;;
19919;SDS011;10122;50.074;19.920;2023-04-15T04:25:24;4.72;;;2.78;;
19919;SDS011;10122;50.074;19.920;2023-04-15T04:27:49;4.60;;;2.65;;
19919;SDS011;10122;50.074;19.920;2023-04-15T04:30:15;4.30;;;2.90;;
19919;SDS011;10122;50.074;19.920;2023-04-15T04:32:41;5.65;;;3.00;;
19919;SDS011;10122;50.074;19.920;2023-04-15T04:35:07;4.53;;;2.95;;
19919;SDS011;10122;50.074;19.920;2023-04-15T04:37:33;5.82;;;2.90;;
19919;SDS011;10122;50.074;19.920;2023-04-15T04:39:59;6.50;;;3.13;;
19919;SDS011;10122;50.074;19.920;2023-04-15T04:42:24;6.88;;;3.10;;
19919;SDS011;10122;50.074;19.920;2023-04-15T04:44:50;5.28;;;2.83;;
19919;SDS011;10122;50.074;19.920;2023-04-15T04:47:16;6.20;;;3.22;;
19919;SDS011;10122;50.074;19.920;2023-04-15T04:49:42;6.43;;;3.00;;
19919;SDS011;10122;50.074;19.920;2023-04-15T04:52:08;6.68;;;3.10;;
19919;SDS011;10122;50.074;19.920;2023-04-15T04:54:33;6.60;;;3.35;;
19919;SDS011;10122;50.074;19.920;2023-04-15T04:56:59;6.40;;;3.40;;
19919;SDS011;10122;50.074;19.920;2023-04-15T04:59:25;6.50;;;3.50;;
19919;SDS011;10122;50.074;19.920;2023-04-15T05:01:51;6.00;;;3.17;;
19919;SDS011;10122;50.074;19.920;2023-04-15T05:04:17;6.50;;;3.22;;
19919;SDS011;10122;50.074;19.920;2023-04-15T05:06:43;5.28;;;3.70;;
19919;SDS011;10122;50.074;19.920;2023-04-15T05:09:08;7.22;;;3.17;;
19919;SDS011;10122;50.074;19.920;2023-04-15T05:11:34;4.47;;;2.95;;
19919;SDS011;10122;50.074;19.920;2023-04-15T05:14:00;6.40;;;3.20;;
19919;SDS011;10122;50.074;19.920;2023-04-15T05:16:26;5.18;;;3.20;;
19919;SDS011;10122;50.074;19.920;2023-04-15T05:18:52;7.13;;;3.10;;
19919;SDS011;10122;50.074;19.920;2023-04-15T05:21:18;6.40;;;3.40;;
19919;SDS011;10122;50.074;19.920;2023-04-15T05:23:44;6.60;;;3.40;;
19919;SDS011;10122;50.074;19.920;2023-04-15T05:26:10;9.23;;;3.33;;
19919;SDS011;10122;50.074;19.920;2023-04-15T05:28:35;4.47;;;3.00;;
19919;SDS011;10122;50.074;19.920;2023-04-15T05:31:01;4.20;;;2.80;;
19919;SDS011;10122;50.074;19.920;2023-04-15T05:33:27;4.82;;;2.95;;
19919;SDS011;10122;50.074;19.920;2023-04-15T05:35:53;7.78;;;3.20;;
19919;SDS011;10122;50.074;19.920;2023-04-15T05:38:19;6.80;;;3.10;;
19919;SDS011;10122;50.074;19.920;2023-04-15T05:40:45;5.07;;;2.83;;
19919;SDS011;10122;50.074;19.920;2023-04-15T05:43:11;5.25;;;2.72;;
19919;SDS011;10122;50.074;19.920;2023-04-15T05:45:36;4.97;;;2.78;;
19919;SDS011;10122;50.074;19.920;2023-04-15T05:48:02;5.72;;;2.67;;
19919;SDS011;10122;50.074;19.920;2023-04-15T05:50:28;4.10;;;2.50;;
19919;SDS011;10122;50.074;19.920;2023-04-15T05:52:53;4.70;;;3.03;;
19919;SDS011;10122;50.074;19.920;2023-04-15T05:55:20;5.15;;;2.78;;
19919;SDS011;10122;50.074;19.920;2023-04-15T05:57:46;4.90;;;2.40;;
19919;SDS011;10122;50.074;19.920;2023-04-15T06:00:12;4.10;;;2.33;;
19919;SDS011;10122;50.074;19.920;2023-04-15T06:02:38;4.10;;;2.33;;
19919;SDS011;10122;50.074;19.920;2023-04-15T06:05:04;3.10;;;2.28;;
19919;SDS011;10122;50.074;19.920;2023-04-15T06:07:34;3.45;;;2.33;;
19919;SDS011;10122;50.074;19.920;2023-04-15T06:10:01;4.95;;;2.60;;
19919;SDS011;10122;50.074;19.920;2023-04-15T06:12:27;3.60;;;2.40;;
19919;SDS011;10122;50.074;19.920;2023-04-15T06:14:53;3.50;;;2.35;;
19919;SDS011;10122;50.074;19.920;2023-04-15T06:17:18;3.97;;;2.03;;
19919;SDS011;10122;50.074;19.920;2023-04-15T06:19:44;3.78;;;2.47;;
19919;SDS011;10122;50.074;19.920;2023-04-15T06:22:10;3.58;;;2.10;;
19919;SDS011;10122;50.074;19.920;2023-04-15T06:24:36;3.08;;;2.40;;
19919;SDS011;10122;50.074;19.920;2023-04-15T06:27:01;3.13;;;2.10;;
19919;SDS011;10122;50.074;19.920;2023-04-15T06:29:27;3.08;;;2.00;;
19919;SDS011;10122;50.074;19.920;2023-04-15T06:31:53;3.97;;;2.50;;
19919;SDS011;10122;50.074;19.920;2023-04-15T06:34:20;4.53;;;2.45;;
19919;SDS011;10122;50.074;19.920;2023-04-15T06:36:46;5.35;;;2.78;;
19919;SDS011;10122;50.074;19.920;2023-04-15T06:39:12;6.20;;;2.92;;
19919;SDS011;10122;50.074;19.920;2023-04-15T06:41:38;4.45;;;2.78;;
19919;SDS011;10122;50.074;19.920;2023-04-15T06:44:03;4.85;;;2.58;;
19919;SDS011;10122;50.074;19.920;2023-04-15T06:46:29;3.97;;;2.28;;
19919;SDS011;10122;50.074;19.920;2023-04-15T06:48:55;3.42;;;2.25;;
19919;SDS011;10122;50.074;19.920;2023-04-15T06:51:21;4.38;;;2.28;;
19919;SDS011;10122;50.074;19.920;2023-04-15T06:53:48;4.20;;;2.30;;
19919;SDS011;10122;50.074;19.920;2023-04-15T06:56:13;3.28;;;2.00;;
19919;SDS011;10122;50.074;19.920;2023-04-15T06:58:39;5.38;;;2.20;;
19919;SDS011;10122;50.074;19.920;2023-04-15T07:01:05;3.05;;;2.05;;
19919;SDS011;10122;50.074;19.920;2023-04-15T07:03:31;4.43;;;2.08;;
19919;SDS011;10122;50.074;19.920;2023-04-15T07:05:57;4.32;;;1.90;;
19919;SDS011;10122;50.074;19.920;2023-04-15T07:08:22;3.78;;;2.03;;
19919;SDS011;10122;50.074;19.920;2023-04-15T07:10:48;3.22;;;1.90;;
19919;SDS011;10122;50.074;19.920;2023-04-15T07:13:14;3.97;;;2.20;;
19919;SDS011;10122;50.074;19.920;2023-04-15T07:15:40;3.70;;;2.00;;
19919;SDS011;10122;50.074;19.920;2023-04-15T07:18:05;3.60;;;2.10;;
19919;SDS011;10122;50.074;19.920;2023-04-15T07:20:31;3.55;;;1.83;;
19919;SDS011;10122;50.074;19.920;2023-04-15T07:22:57;4.03;;;1.98;;
19919;SDS011;10122;50.074;19.920;2023-04-15T07:25:23;3.10;;;1.95;;
19919;SDS011;10122;50.074;19.920;2023-04-15T07:27:48;2.78;;;2.03;;
19919;SDS011;10122;50.074;19.920;2023-04-15T07:30:14;3.45;;;2.10;;
19919;SDS011;10122;50.074;19.920;2023-04-15T07:32:41;5.65;;;2.10;;
19919;SDS011;10122;50.074;19.920;2023-04-15T07:35:07;3.28;;;1.90;;
19919;SDS011;10122;50.074;19.920;2023-04-15T07:37:33;3.50;;;2.00;;
19919;SDS011;10122;50.074;19.920;2023-04-15T07:40:00;3.88;;;2.28;;
19919;SDS011;10122;50.074;19.920;2023-04-15T07:42:26;4.05;;;2.33;;
19919;SDS011;10122;50.074;19.920;2023-04-15T07:44:53;2.70;;;1.95;;
19919;SDS011;10122;50.074;19.920;2023-04-15T07:47:18;3.13;;;2.15;;
19919;SDS011;10122;50.074;19.920;2023-04-15T07:49:45;3.78;;;2.30;;
19919;SDS011;10122;50.074;19.920;2023-04-15T07:52:11;6.07;;;2.08;;
19919;SDS011;10122;50.074;19.920;2023-04-15T07:54:37;3.00;;;2.10;;
19919;SDS011;10122;50.074;19.920;2023-04-15T07:57:02;2.95;;;2.17;;
19919;SDS011;10122;50.074;19.920;2023-04-15T07:59:28;3.92;;;2.13;;
19919;SDS011;10122;50.074;19.920;2023-04-15T08:01:55;4.10;;;2.13;;
19919;SDS011;10122;50.074;19.920;2023-04-15T08:04:21;3.90;;;2.20;;
19919;SDS011;10122;50.074;19.920;2023-04-15T08:06:47;4.60;;;2.33;;
19919;SDS011;10122;50.074;19.920;2023-04-15T08:09:14;3.22;;;2.42;;
19919;SDS011;10122;50.074;19.920;2023-04-15T08:11:40;4.30;;;2.30;;
19919;SDS011;10122;50.074;19.920;2023-04-15T08:14:06;4.57;;;2.33;;
19919;SDS011;10122;50.074;19.920;2023-04-15T08:16:32;2.70;;;2.00;;
19919;SDS011;10122;50.074;19.920;2023-04-15T08:18:57;2.30;;;1.83;;
19919;SDS011;10122;50.074;19.920;2023-04-15T08:21:23;2.95;;;1.98;;
19919;SDS011;10122;50.074;19.920;2023-04-15T08:23:50;4.25;;;2.22;;
19919;SDS011;10122;50.074;19.920;2023-04-15T08:26:17;2.55;;;2.13;;
19919;SDS011;10122;50.074;19.920;2023-04-15T08:28:44;2.28;;;1.70;;
19919;SDS011;10122;50.074;19.920;2023-04-15T08:31:11;5.30;;;2.28;;
19919;SDS011;10122;50.074;19.920;2023-04-15T08:33:38;3.60;;;2.22;;
19919;SDS011;10122;50.074;19.920;2023-04-15T08:36:03;3.20;;;2.40;;
19919;SDS011;10122;50.074;19.920;2023-04-15T08:38:30;3.90;;;2.40;;
19919;SDS011;10122;50.074;19.920;2023-04-15T08:40:56;3.05;;;2.10;;
19919;SDS011;10122;50.074;19.920;2023-04-15T08:43:26;3.90;;;2.20;;
19919;SDS011;10122;50.074;19.920;2023-04-15T08:45:54;2.97;;;1.98;;
19919;SDS011;10122;50.074;19.920;2023-04-15T08:48:32;2.00;;;1.80;;
19919;SDS011;10122;50.074;19.920;2023-04-15T08:50:59;3.92;;;1.90;;
19919;SDS011;10122;50.074;19.920;2023-04-15T08:53:26;3.72;;;1.80;;
19919;SDS011;10122;50.074;19.920;2023-04-15T08:55:53;3.75;;;1.90;;
19919;SDS011;10122;50.074;19.920;2023-04-15T08:58:21;2.30;;;1.77;;
19919;SDS011;10122;50.074;19.920;2023-04-15T09:00:48;3.38;;;2.03;;
19919;SDS011;10122;50.074;19.920;2023-04-15T09:03:14;2.22;;;1.95;;
19919;SDS011;10122;50.074;19.920;2023-04-15T09:05:41;3.58;;;1.83;;
19919;SDS011;10122;50.074;19.920;2023-04-15T09:08:07;1.85;;;1.60;;
19919;SDS011;10122;50.074;19.920;2023-04-15T09:10:33;3.90;;;2.38;;
19919;SDS011;10122;50.074;19.920;2023-04-15T09:12:59;1.90;;;1.70;;
19919;SDS011;10122;50.074;19.920;2023-04-15T09:15:26;2.05;;;1.85;;
19919;SDS011;10122;50.074;19.920;2023-04-15T09:17:53;2.60;;;2.00;;
19919;SDS011;10122;50.074;19.920;2023-04-15T09:20:20;2.78;;;1.98;;
19919;SDS011;10122;50.074;19.920;2023-04-15T09:22:47;2.38;;;1.70;;
19919;SDS011;10122;50.074;19.920;2023-04-15T09:27:52;2.30;;;1.77;;
19919;SDS011;10122;50.074;19.920;2023-04-15T09:30:19;2.38;;;1.90;;
19919;SDS011;10122;50.074;19.920;2023-04-15T09:32:55;3.92;;;1.92;;
19919;SDS011;10122;50.074;19.920;2023-04-15T09:35:35;2.75;;;1.80;;
19919;SDS011;10122;50.074;19.920;2023-04-15T09:38:02;2.90;;;2.00;;
19919;SDS011;10122;50.074;19.920;2023-04-15T09:40:32;3.05;;;2.20;;
19919;SDS011;10122;50.074;19.920;2023-04-15T09:43:03;3.13;;;2.13;;
19919;SDS011;10122;50.074;19.920;2023-04-15T09:45:29;2.72;;;2.22;;
19919;SDS011;10122;50.074;19.920;2023-04-15T09:47:56;2.55;;;2.05;;
19919;SDS011;10122;50.074;19.920;2023-04-15T09:50:26;2.50;;;1.88;;
19919;SDS011;10122;50.074;19.920;2023-04-15T09:52:53;3.70;;;2.30;;
19919;SDS011;10122;50.074;19.920;2023-04-15T09:55:19;4.78;;;2.25;;
19919;SDS011;10122;50.074;19.920;2023-04-15T09:57:45;3.22;;;2.28;;
19919;SDS011;10122;50.074;19.920;2023-04-15T10:00:11;2.10;;;1.90;;
19919;SDS011;10122;50.074;19.920;2023-04-15T10:02:39;2.30;;;2.03;;
19919;SDS011;10122;50.074;19.920;2023-04-15T10:05:13;2.83;;;2.13;;
19919;SDS011;10122;50.074;19.920;2023-04-15T10:07:40;3.45;;;2.00;;
19919;SDS011;10122;50.074;19.920;2023-04-15T10:10:07;2.25;;;1.92;;
19919;SDS011;10122;50.074;19.920;2023-04-15T10:12:33;3.53;;;2.13;;
19919;SDS011;10122;50.074;19.920;2023-04-15T10:15:05;2.55;;;1.90;;
19919;SDS011;10122;50.074;19.920;2023-04-15T10:17:33;3.05;;;2.10;;
19919;SDS011;10122;50.074;19.920;2023-04-15T10:20:01;2.13;;;1.73;;
19919;SDS011;10122;50.074;19.920;2023-04-15T10:22:28;2.47;;;1.95;;
19919;SDS011;10122;50.074;19.920;2023-04-15T10:24:55;4.45;;;2.10;;
19919;SDS011;10122;50.074;19.920;2023-04-15T10:27:22;2.35;;;1.95;;
19919;SDS011;10122;50.074;19.920;2023-04-15T10:29:49;2.55;;;2.00;;
19919;SDS011;10122;50.074;19.920;2023-04-15T10:32:17;2.55;;;2.08;;
19919;SDS011;10122;50.074;19.920;2023-04-15T10:34:44;4.50;;;2.20;;
19919;SDS011;10122;50.074;19.920;2023-04-15T10:37:12;2.90;;;2.10;;
19919;SDS011;10122;50.074;19.920;2023-04-15T10:39:44;2.67;;;2.10;;
19919;SDS011;10122;50.074;19.920;2023-04-15T10:42:16;3.25;;;2.00;;
19919;SDS011;10122;50.074;19.920;2023-04-15T10:44:44;3.03;;;2.00;;
19919;SDS011;10122;50.074;19.920;2023-04-15T10:47:17;2.60;;;2.08;;
19919;SDS011;10122;50.074;19.920;2023-04-15T10:49:51;2.92;;;2.10;;
19919;SDS011;10122;50.074;19.920;2023-04-15T10:52:23;1.95;;;1.75;;
19919;SDS011;10122;50.074;19.920;2023-04-15T10:57:51;2.97;;;1.83;;
19919;SDS011;10122;50.074;19.920;2023-04-15T11:00:18;2.67;;;2.00;;
19919;SDS011;10122;50.074;19.920;2023-04-15T11:02:58;2.67;;;1.83;;
19919;SDS011;10122;50.074;19.920;2023-04-15T11:05:52;2.85;;;2.05;;
19919;SDS011;10122;50.074;19.920;2023-04-15T11:08:18;2.95;;;2.20;;
19919;SDS011;10122;50.074;19.920;2023-04-15T11:15:45;2.53;;;2.13;;
19919;SDS011;10122;50.074;19.920;2023-04-15T11:18:24;2.70;;;2.00;;
19919;SDS011;10122;50.074;19.920;2023-04-15T11:20:52;2.40;;;1.90;;
19919;SDS011;10122;50.074;19.920;2023-04-15T11:23:41;3.90;;;2.50;;
19919;SDS011;10122;50.074;19.920;2023-04-15T11:26:11;2.75;;;2.03;;
19919;SDS011;10122;50.074;19.920;2023-04-15T11:28:43;3.60;;;2.35;;
19919;SDS011;10122;50.074;19.920;2023-04-15T11:31:11;4.75;;;2.30;;
19919;SDS011;10122;50.074;19.920;2023-04-15T11:33:43;2.55;;;2.10;;
19919;SDS011;10122;50.074;19.920;2023-04-15T11:36:26;3.20;;;2.15;;
19919;SDS011;10122;50.074;19.920;2023-04-15T11:38:53;3.63;;;2.25;;
19919;SDS011;10122;50.074;19.920;2023-04-15T11:41:20;3.85;;;1.60;;
19919;SDS011;10122;50.074;19.920;2023-04-15T11:43:46;2.10;;;1.70;;
19919;SDS011;10122;50.074;19.920;2023-04-15T11:46:12;2.70;;;1.90;;
19919;SDS011;10122;50.074;19.920;2023-04-15T11:48:41;8.20;;;2.15;;
19919;SDS011;10122;50.074;19.920;2023-04-15T11:51:08;2.90;;;1.70;;
19919;SDS011;10122;50.074;19.920;2023-04-15T11:56:09;3.25;;;1.90;;
19919;SDS011;10122;50.074;19.920;2023-04-15T11:58:36;3.85;;;1.83;;
19919;SDS011;10122;50.074;19.920;2023-04-15T12:01:03;2.35;;;1.60;;
19919;SDS011;10122;50.074;19.920;2023-04-15T12:03:31;3.15;;;1.80;;
19919;SDS011;10122;50.074;19.920;2023-04-15T12:06:08;4.53;;;2.10;;
19919;SDS011;10122;50.074;19.920;2023-04-15T12:13:54;3.47;;;1.80;;
19919;SDS011;10122;50.074;19.920;2023-04-15T12:16:21;1.92;;;1.60;;
19919;SDS011;10122;50.074;19.920;2023-04-15T12:18:51;3.92;;;1.80;;
19919;SDS011;10122;50.074;19.920;2023-04-15T12:21:20;2.42;;;1.77;;
19919;SDS011;10122;50.074;19.920;2023-04-15T12:23:47;2.05;;;1.60;;
19919;SDS011;10122;50.074;19.920;2023-04-15T12:26:14;1.95;;;1.50;;
19919;SDS011;10122;50.074;19.920;2023-04-15T12:28:41;3.38;;;1.83;;
19919;SDS011;10122;50.074;19.920;2023-04-15T12:31:08;3.38;;;1.75;;
19919;SDS011;10122;50.074;19.920;2023-04-15T12:33:35;2.65;;;1.80;;
19919;SDS011;10122;50.074;19.920;2023-04-15T12:36:02;3.92;;;1.80;;
19919;SDS011;10122;50.074;19.920;2023-04-15T12:38:28;3.00;;;2.20;;
19919;SDS011;10122;50.074;19.920;2023-04-15T12:40:55;2.65;;;1.90;;
19919;SDS011;10122;50.074;19.920;2023-04-15T12:43:21;3.33;;;1.80;;
19919;SDS011;10122;50.074;19.920;2023-04-15T12:45:47;2.03;;;1.75;;
19919;SDS011;10122;50.074;19.920;2023-04-15T12:48:13;2.28;;;1.77;;
19919;SDS011;10122;50.074;19.920;2023-04-15T12:50:38;2.40;;;1.90;;
19919;SDS011;10122;50.074;19.920;2023-04-15T12:53:04;4.57;;;1.88;;
19919;SDS011;10122;50.074;19.920;2023-04-15T12:55:30;2.65;;;2.05;;
19919;SDS011;10122;50.074;19.920;2023-04-15T12:57:56;3.97;;;2.00;;
19919;SDS011;10122;50.074;19.920;2023-04-15T13:00:21;3.08;;;1.90;;
19919;SDS011;10122;50.074;19.920;2023-04-15T13:02:47;2.80;;;1.80;;
19919;SDS011;10122;50.074;19.920;2023-04-15T13:05:13;2.30;;;1.90;;
19919;SDS011;10122;50.074;19.920;2023-04-15T13:07:40;8.85;;;2.13;;
19919;SDS011;10122;50.074;19.920;2023-04-15T13:10:06;2.85;;;1.63;;
19919;SDS011;10122;50.074;19.920;2023-04-15T13:12:32;2.50;;;1.70;;
19919;SDS011;10122;50.074;19.920;2023-04-15T13:15:01;2.22;;;1.75;;
19919;SDS011;10122;50.074;19.920;2023-04-15T13:17:29;3.35;;;1.80;;
19919;SDS011;10122;50.074;19.920;2023-04-15T13:19:55;2.20;;;1.50;;
19919;SDS011;10122;50.074;19.920;2023-04-15T13:22:21;5.22;;;2.10;;
19919;SDS011;10122;50.074;19.920;2023-04-15T13:24:47;2.97;;;1.80;;
19919;SDS011;10122;50.074;19.920;2023-04-15T13:27:13;3.70;;;1.95;;
19919;SDS011;10122;50.074;19.920;2023-04-15T13:29:39;2.72;;;2.00;;
19919;SDS011;10122;50.074;19.920;2023-04-15T13:32:05;3.00;;;1.73;;
19919;SDS011;10122;50.074;19.920;2023-04-15T13:34:31;2.08;;;1.65;;
19919;SDS011;10122;50.074;19.920;2023-04-15T13:36:56;4.28;;;1.60;;
19919;SDS011;10122;50.074;19.920;2023-04-15T13:39:22;2.80;;;1.70;;
19919;SDS011;10122;50.074;19.920;2023-04-15T13:41:48;2.55;;;1.88;;
19919;SDS011;10122;50.074;19.920;2023-04-15T13:44:14;1.77;;;1.60;;
19919;SDS011;10122;50.074;19.920;2023-04-15T13:46:40;5.20;;;1.70;;
19919;SDS011;10122;50.074;19.920;2023-04-15T13:49:06;2.25;;;1.70;;
19919;SDS011;10122;50.074;19.920;2023-04-15T13:51:32;2.45;;;1.60;;
19919;SDS011;10122;50.074;19.920;2023-04-15T13:54:00;2.40;;;1.60;;
19919;SDS011;10122;50.074;19.920;2023-04-15T13:56:26;2.10;;;1.70;;
19919;SDS011;10122;50.074;19.920;2023-04-15T13:58:53;1.92;;;1.60;;
19919;SDS011;10122;50.074;19.920;2023-04-15T14:01:22;12.80;;;1.88;;
19919;SDS011;10122;50.074;19.920;2023-04-15T14:03:49;4.22;;;1.80;;
19919;SDS011;10122;50.074;19.920;2023-04-15T14:06:15;1.92;;;1.73;;
19919;SDS011;10122;50.074;19.920;2023-04-15T14:08:41;2.40;;;1.90;;
19919;SDS011;10122;50.074;19.920;2023-04-15T14:11:06;1.63;;;1.50;;
19919;SDS011;10122;50.074;19.920;2023-04-15T14:13:32;2.47;;;1.67;;
19919;SDS011;10122;50.074;19.920;2023-04-15T14:15:58;2.15;;;1.77;;
19919;SDS011;10122;50.074;19.920;2023-04-15T14:18:24;2.63;;;1.70;;
19919;SDS011;10122;50.074;19.920;2023-04-15T14:20:50;3.13;;;1.70;;
19919;SDS011;10122;50.074;19.920;2023-04-15T14:23:16;2.25;;;1.77;;
19919;SDS011;10122;50.074;19.920;2023-04-15T14:25:41;1.92;;;1.70;;
19919;SDS011;10122;50.074;19.920;2023-04-15T14:28:07;2.58;;;2.00;;
19919;SDS011;10122;50.074;19.920;2023-04-15T14:30:33;3.42;;;1.80;;
19919;SDS011;10122;50.074;19.920;2023-04-15T14:32:59;3.60;;;2.55;;
19919;SDS011;10122;50.074;19.920;2023-04-15T14:35:25;3.78;;;2.65;;
19919;SDS011;10122;50.074;19.920;2023-04-15T14:37:54;9.02;;;4.53;;
19919;SDS011;10122;50.074;19.920;2023-04-15T14:40:20;14.38;;;9.95;;
19919;SDS011;10122;50.074;19.920;2023-04-15T14:42:46;7.43;;;4.65;;
19919;SDS011;10122;50.074;19.920;2023-04-15T14:45:12;3.17;;;2.28;;
19919;SDS011;10122;50.074;19.920;2023-04-15T14:47:38;3.58;;;2.33;;
19919;SDS011;10122;50.074;19.920;2023-04-15T14:50:03;3.25;;;2.28;;
19919;SDS011;10122;50.074;19.920;2023-04-15T14:52:30;3.05;;;2.00;;